createdAt,value
2019-06-26T00:00:57.643Z,97.04
2019-06-26T00:03:26.260Z,97.19
2019-06-26T00:05:54.830Z,97.41
2019-06-26T00:08:23.453Z,98.19
2019-06-26T00:10:52.031Z,99.12
2019-06-26T00:13:26.331Z,98.08
2019-06-26T00:15:50.921Z,98.69
2019-06-26T00:18:19.558Z,98.49
2019-06-26T00:20:48.116Z,100.00
2019-06-26T00:23:16.741Z,98.53
2019-06-26T00:25:45.329Z,98.04
2019-06-26T00:28:13.946Z,100.00
2019-06-26T00:30:43.089Z,99.31
2019-06-26T00:33:11.723Z,98.34
2019-06-26T00:35:40.257Z,98.71
2019-06-26T00:38:08.899Z,100.00
2019-06-26T00:40:37.546Z,99.55
2019-06-26T00:43:06.180Z,99.57
2019-06-26T00:45:34.803Z,98.91
2019-06-26T00:48:03.528Z,99.20
2019-06-26T00:50:32.201Z,100.00
2019-06-26T00:53:00.929Z,99.67
2019-06-26T00:55:29.491Z,99.73
2019-06-26T00:57:58.096Z,100.00
2019-06-26T01:00:32.774Z,100.00
2019-06-26T01:03:01.446Z,100.00
2019-06-26T01:05:29.996Z,99.67
2019-06-26T01:07:58.602Z,100.00
2019-06-26T01:10:27.309Z,100.00
2019-06-26T01:12:55.953Z,100.00
2019-06-26T01:15:24.554Z,100.00
2019-06-26T01:17:53.236Z,100.00
2019-06-26T01:20:21.795Z,100.00
2019-06-26T01:22:50.457Z,100.00
2019-06-26T01:25:19.097Z,100.00
2019-06-26T01:27:47.693Z,100.00
2019-06-26T01:30:16.324Z,100.00
2019-06-26T01:32:45.089Z,100.00
2019-06-26T01:35:13.787Z,100.00
2019-06-26T01:37:42.512Z,100.00
2019-06-26T01:40:11.224Z,100.00
2019-06-26T01:42:39.922Z,100.00
2019-06-26T01:45:09.124Z,100.00
2019-06-26T01:47:37.852Z,100.00
2019-06-26T01:50:09.488Z,100.00
2019-06-26T01:52:38.082Z,100.00
2019-06-26T01:55:07.079Z,100.00
2019-06-26T01:57:35.689Z,100.00
2019-06-26T02:00:06.867Z,100.00
2019-06-26T02:02:35.558Z,100.00
2019-06-26T02:05:06.528Z,100.00
2019-06-26T02:07:35.132Z,100.00
2019-06-26T02:10:05.130Z,100.00
2019-06-26T02:12:33.767Z,100.00
2019-06-26T02:15:02.339Z,100.00
2019-06-26T02:17:31.279Z,100.00
2019-06-26T02:19:59.829Z,100.00
2019-06-26T02:22:28.466Z,100.00
2019-06-26T02:24:57.100Z,100.00
2019-06-26T02:27:25.756Z,100.00
2019-06-26T02:29:54.328Z,100.00
2019-06-26T02:32:22.939Z,100.00
2019-06-26T02:34:51.489Z,100.00
2019-06-26T02:37:20.190Z,100.00
2019-06-26T02:39:48.755Z,100.00
2019-06-26T02:42:17.379Z,100.00
2019-06-26T02:44:53.051Z,100.00
2019-06-26T02:47:20.148Z,100.00
2019-06-26T02:49:46.535Z,100.00
2019-06-26T02:52:15.226Z,100.00
2019-06-26T02:54:43.786Z,100.00
2019-06-26T02:57:12.392Z,100.00
2019-06-26T02:59:40.980Z,100.00
2019-06-26T03:02:09.632Z,100.00
2019-06-26T03:04:38.211Z,100.00
2019-06-26T03:07:06.842Z,100.00
2019-06-26T03:09:35.410Z,100.00
2019-06-26T03:12:04.092Z,100.00
2019-06-26T03:14:32.679Z,100.00
2019-06-26T03:17:01.289Z,100.00
2019-06-26T03:19:29.918Z,100.00
2019-06-26T03:21:58.527Z,100.00
2019-06-26T03:24:27.180Z,100.00
2019-06-26T03:26:55.847Z,100.00
2019-06-26T03:29:24.436Z,100.00
2019-06-26T03:31:53.078Z,100.00
2019-06-26T03:34:21.661Z,100.00
2019-06-26T03:36:50.260Z,100.00
2019-06-26T03:39:18.854Z,100.00
2019-06-26T03:41:47.462Z,100.00
2019-06-26T03:44:16.074Z,100.00
2019-06-26T03:46:44.696Z,100.00
2019-06-26T03:49:13.331Z,100.00
2019-06-26T03:51:41.988Z,100.00
2019-06-26T03:54:12.333Z,100.00
2019-06-26T03:56:45.788Z,100.00
2019-06-26T03:59:14.396Z,100.00
2019-06-26T04:01:42.967Z,100.00
2019-06-26T04:14:06.346Z,100.00
2019-06-26T04:16:34.941Z,100.00
2019-06-26T04:24:00.955Z,100.00
2019-06-26T04:26:29.577Z,100.00
2019-06-26T04:28:58.224Z,100.00
2019-06-26T04:31:26.808Z,100.00
2019-06-26T04:41:21.628Z,100.00
2019-06-26T04:48:47.688Z,100.00
2019-06-26T04:51:16.272Z,100.00
2019-06-26T05:01:10.994Z,100.00
2019-06-26T05:03:39.608Z,100.00
2019-06-26T05:06:08.252Z,100.00
2019-06-26T05:08:36.870Z,100.00
2019-06-26T05:11:05.526Z,100.00
2019-06-26T05:13:34.167Z,100.00
2019-06-26T05:16:14.279Z,100.00
2019-06-26T05:18:33.147Z,100.00
2019-06-26T05:21:01.736Z,100.00
2019-06-26T05:23:30.638Z,100.00
2019-06-26T05:25:59.225Z,100.00
2019-06-26T05:28:27.851Z,100.00
2019-06-26T05:30:56.497Z,100.00
2019-06-26T05:33:25.092Z,100.00
2019-06-26T05:35:53.679Z,100.00
2019-06-26T05:38:22.293Z,100.00
2019-06-26T05:40:50.877Z,100.00
2019-06-26T05:43:19.517Z,100.00
2019-06-26T05:45:48.111Z,100.00
2019-06-26T05:48:16.822Z,100.00
2019-06-26T05:50:45.460Z,100.00
2019-06-26T05:53:14.103Z,100.00
2019-06-26T05:55:42.744Z,100.00
2019-06-26T05:58:11.358Z,100.00
2019-06-26T06:00:39.961Z,100.00
2019-06-26T06:03:08.592Z,100.00
2019-06-26T06:05:37.250Z,100.00
2019-06-26T06:08:05.863Z,100.00
2019-06-26T06:10:34.480Z,100.00
2019-06-26T06:13:03.134Z,100.00
2019-06-26T06:15:31.787Z,100.00
2019-06-26T06:18:00.439Z,98.52
2019-06-26T06:20:39.579Z,100.00
2019-06-26T06:23:08.188Z,96.98
2019-06-26T06:25:36.761Z,94.93
2019-06-26T06:28:05.428Z,91.65
2019-06-26T06:30:34.072Z,90.32
2019-06-26T06:33:02.810Z,90.35
2019-06-26T06:35:31.384Z,96.34
2019-06-26T06:38:00.049Z,86.25
2019-06-26T06:40:28.596Z,83.88
2019-06-26T06:42:57.215Z,86.17
2019-06-26T06:45:26.171Z,80.82
2019-06-26T06:47:54.812Z,80.63
2019-06-26T06:50:23.556Z,80.43
2019-06-26T06:52:52.182Z,76.58
2019-06-26T06:55:20.935Z,79.07
2019-06-26T06:57:49.542Z,77.08
2019-06-26T07:00:18.610Z,81.83
2019-06-26T07:02:47.227Z,76.14
2019-06-26T07:05:15.908Z,73.80
2019-06-26T07:07:44.646Z,81.57
2019-06-26T07:10:14.174Z,77.51
2019-06-26T07:12:43.947Z,71.93
2019-06-26T07:15:13.051Z,72.52
2019-06-26T07:17:41.710Z,70.35
2019-06-26T07:20:10.890Z,66.26
2019-06-26T07:22:39.552Z,65.10
2019-06-26T07:25:08.658Z,64.31
2019-06-26T07:27:37.331Z,63.96
2019-06-26T07:30:06.843Z,67.12
2019-06-26T07:32:35.545Z,63.30
2019-06-26T07:35:05.963Z,62.58
2019-06-26T07:37:34.602Z,63.55
2019-06-26T07:40:04.306Z,63.21
2019-06-26T07:42:32.908Z,63.60
2019-06-26T07:45:01.486Z,62.56
2019-06-26T07:47:42.543Z,63.42
2019-06-26T07:50:00.347Z,61.99
2019-06-26T07:52:28.971Z,61.98
2019-06-26T07:54:57.555Z,62.29
2019-06-26T07:57:26.215Z,61.83
2019-06-26T07:59:54.886Z,59.71
2019-06-26T08:02:23.490Z,62.03
2019-06-26T08:04:52.046Z,60.91
2019-06-26T08:07:20.642Z,59.95
2019-06-26T08:09:49.210Z,60.53
2019-06-26T08:12:17.864Z,60.16
2019-06-26T08:14:46.416Z,59.92
2019-06-26T08:17:15.028Z,60.43
2019-06-26T08:19:46.080Z,60.33
2019-06-26T08:22:14.859Z,59.00
2019-06-26T08:24:43.501Z,60.40
2019-06-26T08:27:13.256Z,58.65
2019-06-26T08:29:41.894Z,58.59
2019-06-26T08:32:10.499Z,60.16
2019-06-26T08:34:39.234Z,59.37
2019-06-26T08:37:08.119Z,58.81
2019-06-26T08:39:36.749Z,58.87
2019-06-26T08:42:05.529Z,57.16
2019-06-26T08:44:34.104Z,58.37
2019-06-26T08:47:02.725Z,58.29
2019-06-26T08:49:31.346Z,58.01
2019-06-26T08:52:00.053Z,56.28
2019-06-26T08:54:28.609Z,56.12
2019-06-26T08:56:57.286Z,55.46
2019-06-26T08:59:25.861Z,56.82
2019-06-26T09:01:54.681Z,56.42
2019-06-26T09:04:23.277Z,55.22
2019-06-26T09:06:51.873Z,56.71
2019-06-26T09:09:20.428Z,56.50
2019-06-26T09:11:49.061Z,54.64
2019-06-26T09:14:17.650Z,53.55
2019-06-26T09:16:46.227Z,52.88
2019-06-26T09:19:14.789Z,51.87
2019-06-26T09:21:43.405Z,52.01
2019-06-26T09:24:11.991Z,51.62
2019-06-26T09:26:40.652Z,50.78
2019-06-26T09:29:09.277Z,50.30
2019-06-26T09:31:38.024Z,51.63
2019-06-26T09:34:06.594Z,50.72
2019-06-26T09:36:35.296Z,50.50
2019-06-26T09:39:05.697Z,48.37
2019-06-26T09:41:34.380Z,49.61
2019-06-26T09:44:03.009Z,46.64
2019-06-26T09:46:31.717Z,46.58
2019-06-26T09:49:00.301Z,47.55
2019-06-26T09:51:28.893Z,48.42
2019-06-26T09:53:57.456Z,48.58
2019-06-26T09:56:26.062Z,48.07
2019-06-26T09:58:54.638Z,47.25
2019-06-26T10:01:23.335Z,48.76
2019-06-26T10:03:51.903Z,46.76
2019-06-26T10:06:20.493Z,45.89
2019-06-26T10:08:49.138Z,45.66
2019-06-26T10:11:17.876Z,45.42
2019-06-26T10:13:46.502Z,45.86
2019-06-26T10:16:15.167Z,47.20
2019-06-26T10:18:43.718Z,45.71
2019-06-26T10:21:12.386Z,44.71
2019-06-26T10:23:40.997Z,44.96
2019-06-26T10:26:09.809Z,45.72
2019-06-26T10:28:38.951Z,44.23
2019-06-26T10:31:07.624Z,45.09
2019-06-26T10:33:36.178Z,43.64
2019-06-26T10:36:04.845Z,44.23
2019-06-26T10:38:33.795Z,45.21
2019-06-26T10:41:02.484Z,44.90
2019-06-26T10:43:31.136Z,44.56
2019-06-26T10:45:59.725Z,44.51
2019-06-26T10:48:28.286Z,44.31
2019-06-26T10:50:58.775Z,42.95
2019-06-26T10:53:28.020Z,43.08
2019-06-26T10:55:56.615Z,41.79
2019-06-26T10:58:25.199Z,39.71
2019-06-26T11:10:50.020Z,39.07
2019-06-26T11:13:19.000Z,39.32
2019-06-26T11:25:44.796Z,40.61
2019-06-26T11:28:13.852Z,41.39
2019-06-26T11:30:42.919Z,41.16
2019-06-26T11:33:11.974Z,40.59
2019-06-26T11:35:41.077Z,40.31
2019-06-26T11:40:39.394Z,41.06
2019-06-26T11:55:34.321Z,40.36
2019-06-26T11:58:03.486Z,40.70
2019-06-26T12:00:32.669Z,38.65
2019-06-26T12:03:01.768Z,40.12
2019-06-26T12:05:30.892Z,39.49
2019-06-26T12:08:00.029Z,39.26
2019-06-26T12:10:32.826Z,39.54
2019-06-26T12:13:04.162Z,39.45
2019-06-26T12:15:32.794Z,39.71
2019-06-26T12:18:02.006Z,39.00
2019-06-26T12:20:31.173Z,39.61
2019-06-26T12:23:00.311Z,40.27
2019-06-26T12:25:29.596Z,39.20
2019-06-26T12:28:00.193Z,39.46
2019-06-26T12:30:30.933Z,39.82
2019-06-26T12:33:03.478Z,39.71
2019-06-26T12:35:31.007Z,39.72
2019-06-26T12:38:00.165Z,39.52
2019-06-26T12:40:31.483Z,40.65
2019-06-26T12:43:07.559Z,40.43
2019-06-26T12:45:37.640Z,39.58
2019-06-26T12:48:06.879Z,39.70
2019-06-26T12:50:36.308Z,39.82
2019-06-26T12:53:07.979Z,39.33
2019-06-26T12:55:38.260Z,39.05
2019-06-26T12:58:14.029Z,39.53
2019-06-26T13:00:38.515Z,39.45
2019-06-26T13:03:07.664Z,39.50
2019-06-26T13:05:36.863Z,39.83
2019-06-26T13:08:06.393Z,39.44
2019-06-26T13:10:49.025Z,38.96
2019-06-26T13:13:09.542Z,39.06
2019-06-26T13:15:38.677Z,38.72
2019-06-26T13:18:07.895Z,38.67
2019-06-26T13:20:51.692Z,38.70
2019-06-26T13:23:08.368Z,38.94
2019-06-26T13:25:37.526Z,39.07
2019-06-26T13:28:06.721Z,40.39
2019-06-26T13:30:43.301Z,39.92
2019-06-26T13:33:12.326Z,39.30
2019-06-26T13:35:41.466Z,39.44
2019-06-26T13:38:10.645Z,39.88
2019-06-26T13:40:42.192Z,39.63
2019-06-26T13:43:11.396Z,39.41
2019-06-26T13:45:42.227Z,39.93
2019-06-26T13:48:12.852Z,39.90
2019-06-26T13:50:41.995Z,40.97
2019-06-26T13:53:11.192Z,40.37
2019-06-26T13:55:41.143Z,40.91
2019-06-26T13:58:10.348Z,39.79
2019-06-26T14:00:43.983Z,38.97
2019-06-26T14:03:14.440Z,39.26
2019-06-26T14:05:45.248Z,39.95
2019-06-26T14:08:14.458Z,39.91
2019-06-26T14:10:46.104Z,40.59
2019-06-26T14:13:15.291Z,40.23
2019-06-26T14:15:44.473Z,40.15
2019-06-26T14:18:15.167Z,40.99
2019-06-26T14:20:46.747Z,40.79
2019-06-26T14:23:19.998Z,39.80
2019-06-26T14:25:49.666Z,39.94
2019-06-26T14:28:23.159Z,40.34
2019-06-26T14:30:53.585Z,40.67
2019-06-26T14:33:22.735Z,40.13
2019-06-26T14:35:51.973Z,40.15
2019-06-26T14:38:23.493Z,39.85
2019-06-26T14:40:55.020Z,39.95
2019-06-26T14:43:24.161Z,39.60
2019-06-26T14:45:53.424Z,39.31
2019-06-26T14:48:22.568Z,39.98
2019-06-26T14:50:52.631Z,39.38
2019-06-26T14:53:26.211Z,40.01
2019-06-26T14:55:55.493Z,40.27
2019-06-26T14:58:27.094Z,39.81
2019-06-26T15:00:56.277Z,41.31
2019-06-26T15:03:25.438Z,40.19
2019-06-26T15:05:54.777Z,40.13
2019-06-26T15:08:25.512Z,40.45
2019-06-26T15:10:54.719Z,41.65
2019-06-26T15:13:23.870Z,42.77
2019-06-26T15:15:54.954Z,43.94
2019-06-26T15:18:25.792Z,43.35
2019-06-26T15:20:55.030Z,43.35
2019-06-26T15:23:24.196Z,43.36
2019-06-26T15:25:56.183Z,43.22
2019-06-26T15:28:25.362Z,43.15
2019-06-26T15:30:54.918Z,42.54
2019-06-26T15:33:24.478Z,42.70
2019-06-26T15:35:56.240Z,42.99
2019-06-26T15:38:29.522Z,43.21
2019-06-26T15:41:02.199Z,43.92
2019-06-26T15:43:31.485Z,43.13
2019-06-26T15:46:01.166Z,43.90
2019-06-26T15:48:30.913Z,44.35
2019-06-26T15:51:00.111Z,44.39
2019-06-26T15:53:29.357Z,45.27
2019-06-26T15:55:59.243Z,45.13
2019-06-26T15:58:30.066Z,45.74
2019-06-26T16:00:59.231Z,44.86
2019-06-26T16:03:30.794Z,44.21
2019-06-26T16:05:59.962Z,44.75
2019-06-26T16:08:31.871Z,44.20
2019-06-26T16:11:02.187Z,43.55
2019-06-26T16:13:33.937Z,42.81
2019-06-26T16:16:08.421Z,43.04
2019-06-26T16:18:45.456Z,43.75
2019-06-26T16:21:14.700Z,42.99
2019-06-26T16:23:43.749Z,42.74
2019-06-26T16:26:12.972Z,42.55
2019-06-26T16:28:42.128Z,42.69
2019-06-26T16:31:11.419Z,42.67
2019-06-26T16:33:40.637Z,42.30
2019-06-26T16:36:09.895Z,42.19
2019-06-26T16:38:39.658Z,42.44
2019-06-26T16:41:09.263Z,42.91
2019-06-26T16:43:38.437Z,42.76
2019-06-26T16:46:08.892Z,42.94
2019-06-26T16:48:38.075Z,43.19
2019-06-26T16:51:07.501Z,43.93
2019-06-26T16:53:38.339Z,44.01
2019-06-26T16:56:18.604Z,43.95
2019-06-26T16:58:49.132Z,44.58
2019-06-26T17:01:18.924Z,44.84
2019-06-26T17:03:49.174Z,44.88
2019-06-26T17:06:18.404Z,45.22
2019-06-26T17:08:47.742Z,45.48
2019-06-26T17:11:18.168Z,45.84
2019-06-26T17:13:47.359Z,45.83
2019-06-26T17:16:18.120Z,46.07
2019-06-26T17:18:47.220Z,46.46
2019-06-26T17:21:16.803Z,46.77
2019-06-26T17:23:45.943Z,46.74
2019-06-26T17:26:15.021Z,47.12
2019-06-26T17:28:45.051Z,48.08
2019-06-26T17:31:14.728Z,48.31
2019-06-26T17:33:44.025Z,47.97
2019-06-26T17:36:14.677Z,48.64
2019-06-26T17:38:46.826Z,48.04
2019-06-26T17:41:16.434Z,47.56
2019-06-26T17:43:47.104Z,47.49
2019-06-26T17:46:16.789Z,47.11
2019-06-26T17:48:46.389Z,47.30
2019-06-26T17:51:17.535Z,47.12
2019-06-26T17:53:46.857Z,46.73
2019-06-26T17:56:16.091Z,46.83
2019-06-26T17:58:45.302Z,46.94
2019-06-26T18:01:14.513Z,46.98
2019-06-26T18:03:45.874Z,47.16
2019-06-26T18:06:18.829Z,46.74
2019-06-26T18:08:49.757Z,46.46
2019-06-26T18:11:18.954Z,46.29
2019-06-26T18:13:53.407Z,46.52
2019-06-26T18:16:24.186Z,46.43
2019-06-26T18:18:59.071Z,46.60
2019-06-26T18:21:29.018Z,47.28
2019-06-26T18:23:59.802Z,46.97
2019-06-26T18:26:31.375Z,47.66
2019-06-26T18:29:03.267Z,47.99
2019-06-26T18:31:34.143Z,48.15
2019-06-26T18:34:03.460Z,48.61
2019-06-26T18:36:34.000Z,48.87
2019-06-26T18:39:07.660Z,49.64
2019-06-26T18:41:40.911Z,49.45
2019-06-26T18:44:14.222Z,49.77
2019-06-26T18:46:45.022Z,50.25
2019-06-26T18:49:15.805Z,50.61
2019-06-26T18:51:49.088Z,51.08
2019-06-26T18:54:23.023Z,51.44
2019-06-26T18:56:54.607Z,52.25
2019-06-26T18:59:24.036Z,51.86
2019-06-26T19:01:53.268Z,52.41
2019-06-26T19:04:22.653Z,53.00
2019-06-26T19:06:52.274Z,53.35
2019-06-26T19:09:21.569Z,53.56
2019-06-26T19:11:52.276Z,53.63
2019-06-26T19:14:22.929Z,53.86
2019-06-26T19:16:53.442Z,53.93
2019-06-26T19:19:22.802Z,54.26
2019-06-26T19:21:52.294Z,54.33
2019-06-26T19:24:22.060Z,54.74
2019-06-26T19:26:51.270Z,54.81
2019-06-26T19:29:21.599Z,54.98
2019-06-26T19:31:50.928Z,55.50
2019-06-26T19:34:22.948Z,55.70
2019-06-26T19:36:56.148Z,56.41
2019-06-26T19:39:30.728Z,56.54
2019-06-26T19:42:04.238Z,56.73
2019-06-26T19:44:36.825Z,57.52
2019-06-26T19:47:08.669Z,57.55
2019-06-26T19:49:45.024Z,58.77
2019-06-26T19:52:17.874Z,58.72
2019-06-26T19:54:47.208Z,59.19
2019-06-26T19:57:17.467Z,59.64
2019-06-26T19:59:47.485Z,60.05
2019-06-26T20:02:18.226Z,61.05
2019-06-26T20:04:51.678Z,61.36
2019-06-26T20:07:26.551Z,61.79
2019-06-26T20:10:01.732Z,61.82
2019-06-26T20:12:34.073Z,62.11
2019-06-26T20:15:06.401Z,62.22
2019-06-26T20:17:37.273Z,62.52
2019-06-26T20:20:11.171Z,63.01
2019-06-26T20:22:43.464Z,63.01
2019-06-26T20:25:14.062Z,63.65
2019-06-26T20:27:45.727Z,64.33
2019-06-26T20:30:16.987Z,64.59
2019-06-26T20:32:46.283Z,65.70
2019-06-26T20:35:15.994Z,66.93
2019-06-26T20:37:45.852Z,67.43
2019-06-26T20:40:16.505Z,67.53
2019-06-26T20:42:46.728Z,68.18
2019-06-26T20:45:16.021Z,68.02
2019-06-26T20:47:46.546Z,69.17
2019-06-26T20:50:15.742Z,69.73
2019-06-26T20:52:44.914Z,69.78
2019-06-26T20:55:14.262Z,69.82
2019-06-26T20:57:43.460Z,69.43
2019-06-26T21:00:14.662Z,70.46
2019-06-26T21:02:43.842Z,70.29
2019-06-26T21:05:13.119Z,71.11
2019-06-26T21:07:42.290Z,72.01
2019-06-26T21:10:11.914Z,71.18
2019-06-26T21:12:41.026Z,71.52
2019-06-26T21:15:10.878Z,71.63
2019-06-26T21:17:40.025Z,71.66
2019-06-26T21:20:10.348Z,72.40
2019-06-26T21:22:40.565Z,72.26
2019-06-26T21:25:18.412Z,73.00
2019-06-26T21:27:40.374Z,72.12
2019-06-26T21:30:10.123Z,72.42
2019-06-26T21:32:38.902Z,73.35
2019-06-26T21:35:08.381Z,72.16
2019-06-26T21:37:37.028Z,73.81
2019-06-26T21:40:05.946Z,73.45
2019-06-26T21:42:34.591Z,73.98
2019-06-26T21:45:03.266Z,73.21
2019-06-26T21:47:31.925Z,73.45
2019-06-26T21:50:00.523Z,73.08
2019-06-26T21:52:29.144Z,73.83
2019-06-26T21:54:57.718Z,72.94
2019-06-26T21:57:26.393Z,73.84
2019-06-26T21:59:55.001Z,73.28
2019-06-26T22:02:23.574Z,73.72
2019-06-26T22:04:52.154Z,73.98
2019-06-26T22:07:20.925Z,73.73
2019-06-26T22:09:49.617Z,73.98
2019-06-26T22:12:18.296Z,74.26
2019-06-26T22:14:46.860Z,74.53
2019-06-26T22:17:15.463Z,74.91
2019-06-26T22:19:44.094Z,74.94
2019-06-26T22:22:12.720Z,75.08
2019-06-26T22:24:41.325Z,74.86
2019-06-26T22:27:13.136Z,75.74
2019-06-26T22:29:41.767Z,75.11
2019-06-26T22:32:10.305Z,76.50
2019-06-26T22:34:38.931Z,77.75
2019-06-26T22:37:07.615Z,76.64
2019-06-26T22:39:36.255Z,76.34
2019-06-26T22:42:04.868Z,78.11
2019-06-26T22:44:33.465Z,78.53
2019-06-26T22:47:02.085Z,78.37
2019-06-26T22:49:30.686Z,77.87
2019-06-26T22:51:59.240Z,80.30
2019-06-26T22:54:33.073Z,80.98
2019-06-26T22:57:01.688Z,81.19
2019-06-26T22:59:30.282Z,81.56
2019-06-26T23:01:58.923Z,83.67
2019-06-26T23:04:27.591Z,83.26
2019-06-26T23:06:56.183Z,84.15
2019-06-26T23:09:24.803Z,84.86
2019-06-26T23:11:53.383Z,86.75
2019-06-26T23:14:21.993Z,85.06
2019-06-26T23:16:50.556Z,87.74
2019-06-26T23:19:19.211Z,87.93
2019-06-26T23:21:47.768Z,89.23
2019-06-26T23:24:16.368Z,90.04
2019-06-26T23:26:44.927Z,90.82
2019-06-26T23:29:13.537Z,90.99
2019-06-26T23:31:42.098Z,91.23
2019-06-26T23:34:10.723Z,91.90
2019-06-26T23:36:39.276Z,92.10
2019-06-26T23:39:07.947Z,94.87
2019-06-26T23:41:36.633Z,95.34
2019-06-26T23:44:05.243Z,95.82
2019-06-26T23:46:33.848Z,96.62
2019-06-26T23:49:02.503Z,98.48
2019-06-26T23:51:31.155Z,100.00
2019-06-26T23:54:00.115Z,96.00
2019-06-26T23:56:40.132Z,99.54
2019-06-26T23:58:58.980Z,100.00
